Buen Pasto, Argentina
Current Conditions -  °F | °C
As of 10:00 PM on Tuesday 21 Oct 2014 (Local Time) from SAVC Reporting Station
Clear Clear  
Wind Chill: 66°   Ceiling: Unl
Heat Index: 66°   Visibility: 6mi
Dew Point: 32°   Wind: 29mph
Humidity: 28%   Direction: 290°WNW
Pressure: 29.65"   Gusts: 44mph
Location:  45.08°S, 69.47°W
Report Text: SAVC 220100Z 29025G38KT CAVOK 19/00 Q1004
Loading
Personal Weather Stations






























Interactive Weather Map New forecast layout! Learn more

10-Day Weather Forecast

Advertisements
Track Severe Weather on mobile